Dillon, CO

2:09 AM MDT on August 31, 2014 (GMT -0600)
Copper Mountain | Change Station
CLOSE
Current Station
Airport
Location: Copper Mountain,
Elevation: 12073 ft
Nearby Weather Stations

Elev 12073 ft 39.48 °N, 106.15 °W | Updated 13 minutes ago

Clear
Clear
52 °F
Feels Like 52 °F
N
20
Wind Variable Wind from South
Gusts 26 mph

Today
High -- | Low -- °F
--% Chance of Precip.
Yesterday
High -- | Low -- °F
Precip. -- in
6:31 AM 7:36 PM
Waxing Crescent, 28% visible
Pressure 30.39 in
Visibility 10.0 miles
Clouds Clear
Dew Point 30 °F
Humidity 44%
Rainfall 0.00 in
Snow Depth Not available.
UV 0 out of 12
Pollen 10.50 out of 12
Air Quality Not available.
Flu Activity Not available.
METAR KCCU 310756Z AUTO 19017G23KT 150V210 10SM CLR 11/M01 A3039 RMK AO2

More Conditions Fewer Conditions

Pressure 30.39 in
Visibility 10.0 miles
Clouds Clear
Dew Point 30 °F
Humidity 44%
Rainfall 0.00 in
Snow Depth Not available.
UV 0 out of 12
Pollen 10.50 out of 12
Air Quality Not available.
Flu Activity Not available.
METAR KCCU 310756Z AUTO 19017G23KT 150V210 10SM CLR 11/M01 A3039 RMK AO2

More Conditions Fewer Conditions

Nowcast | as of 12:58 am MDT on August 31, 2014

Isolated light rain showers will move across the mountains of north central Colorado through 3 am...mainly in northern grand and southern Jackson counties. More numerous showers will move through Jackson and grand counties toward morning.

×

10-Day Weather Forecast

Almanac

Astronomy

Aug. 31, 2014 Rise Set
Actual Time 6:31 AM MDT 7:36 PM MDT
Civil Twilight 6:03 AM MDT 8:03 PM MDT
Nautical Twilight 5:30 AM MDT 8:36 PM MDT
Astronomical Twilight 4:56 AM MDT 9:10 PM MDT
Moon 12:18 PM MDT 10:54 PM MDT
Length of Visible Light 14h 00m
Length of Day
13h 05m
Tomorrow will be 2m 28s shorter.
Waxing Crescent, 28% of the Moon is Illuminated
Today
Waxing Crescent
Sep 2
First Quarter
Sep 8
Full
Sep 15
Last Quarter
Sep 24
New

Today's Extremes

State Highs State Lows

Community

WunderPhotos

Upload Photos

1,748,816 photos uploaded!

Nearby

Snow Depth

Station Depth Elevation
Michigan Creek 0 in 10600 ft
Grizzly Peak 0 in 11100 ft
Loveland Basin 8 in 11400 ft
Jackwhacker Gulch 1 in 10960 ft
Copper Mountain 0 in 10500 ft

Earthquake Activity

City Distance Mag. Time & Date
No recent earthquake activity has been reported nearby.
Minimum magnitude displayed is 2.5.

Coastal Water Temperatures

Place Temperature
No Stations Reporting

Nearby Weather Stations